Ryoshin Maru — JD2464 — position and weather

sailwx.info

Track history (hours):
 
Tides and Currents Weather Stations Pressure Air Temp Water Temp Dewpoint Dewpoint Depression Visibility Wind Speed Wind Dir Waves Ship Positions

Ryoshin Maru

Last reported at 2017-Dec-16 07:04 UTC. Time now 2017-Dec-16 08:54 UTC.
Position N 34°18' E 132°60'.

Length 60 m; draft 3.5 m.

Type: Tanker. MMSI: 431000263.

Date/timePositionNaut miles runAvg speedWind from/ knotsBaromVisibWave heightAir tempDewpointWater temp
2017-Dec-16 07:04N 34°18' E 132°60'74 7.6
2017-Dec-15 21:18N 34°18' E 134°30'413.0
2017-Dec-15 21:00N 34°17' E 134°34'713.1
2017-Dec-15 20:31N 34°13' E 134°40'713.4
2017-Dec-15 20:00N 34°08' E 134°46'812.6
2017-Dec-15 19:23N 34°02' E 134°52'512.4
2017-Dec-15 19:00N 33°58' E 134°56'112 8.8
2017-Dec-15 06:18N 34°44' E 136°59'412.6
2017-Dec-15 06:00N 34°48' E 136°57'4 7.9
2017-Dec-15 05:30N 34°51' E 136°56'0 0.0
2017-Dec-15 02:20N 34°51' E 136°56'111 7.7
2017-Dec-14 11:50N 33°53' E 135°02'412.3
2017-Dec-14 11:28N 33°58' E 135°01'612.1
2017-Dec-14 11:00N 34°03' E 134°60'612.3
2017-Dec-14 10:30N 34°09' E 134°59'612.2
2017-Dec-14 10:00N 34°16' E 134°59'611.3
2017-Dec-14 09:31N 34°21' E 134°59'611.6
2017-Dec-14 09:01N 34°27' E 135°01'611.4
2017-Dec-14 08:30N 34°32' E 135°02'4 8.7
2017-Dec-14 08:01N 34°37' E 135°01'510.1
2017-Dec-14 07:30N 34°36' E 134°55'510.6
2017-Dec-14 07:00N 34°33' E 134°49'511.0
2017-Dec-14 06:30N 34°31' E 134°43'611.4
2017-Dec-14 06:01N 34°29' E 134°37'  
2017-Dec-08 09:03N 34°39' E 134°22'510.4
2017-Dec-08 08:31N 34°41' E 134°28'110.3
2017-Dec-08 08:26N 34°41' E 134°29'810.3
2017-Dec-08 07:38N 34°42' E 134°39'110.6
2017-Dec-08 07:30N 34°42' E 134°41'510.1
2017-Dec-08 07:01N 34°41' E 134°47'3 6.7
2017-Dec-08 06:30N 34°43' E 134°51'0 0.0
2017-Dec-08 06:00N 34°43' E 134°51'  
Track history (hours):
 
Tides and Currents Weather Stations Pressure Air Temp Water Temp Dewpoint Dewpoint Depression Visibility Wind Speed Wind Dir Waves Ship Positions

Ryoshin Maru

Last reported at 2017-Dec-16 07:04 UTC. Time now 2017-Dec-16 08:54 UTC.
Position N 34°18' E 132°60'.

Length 60 m; draft 3.5 m.

Type: Tanker. MMSI: 431000263.

Date/timePositionNaut miles runAvg speedWind from/ knotsBaromVisibWave heightAir tempDewpointWater temp
2017-Dec-16 07:04N 34°18' E 132°60'74 7.6
2017-Dec-15 21:18N 34°18' E 134°30'413.0
2017-Dec-15 21:00N 34°17' E 134°34'713.1
2017-Dec-15 20:31N 34°13' E 134°40'713.4
2017-Dec-15 20:00N 34°08' E 134°46'812.6
2017-Dec-15 19:23N 34°02' E 134°52'512.4
2017-Dec-15 19:00N 33°58' E 134°56'112 8.8
2017-Dec-15 06:18N 34°44' E 136°59'412.6
2017-Dec-15 06:00N 34°48' E 136°57'4 7.9
2017-Dec-15 05:30N 34°51' E 136°56'0 0.0
2017-Dec-15 02:20N 34°51' E 136°56'111 7.7
2017-Dec-14 11:50N 33°53' E 135°02'412.3
2017-Dec-14 11:28N 33°58' E 135°01'612.1
2017-Dec-14 11:00N 34°03' E 134°60'612.3
2017-Dec-14 10:30N 34°09' E 134°59'612.2
2017-Dec-14 10:00N 34°16' E 134°59'611.3
2017-Dec-14 09:31N 34°21' E 134°59'611.6
2017-Dec-14 09:01N 34°27' E 135°01'611.4
2017-Dec-14 08:30N 34°32' E 135°02'4 8.7
2017-Dec-14 08:01N 34°37' E 135°01'510.1
2017-Dec-14 07:30N 34°36' E 134°55'510.6
2017-Dec-14 07:00N 34°33' E 134°49'511.0
2017-Dec-14 06:30N 34°31' E 134°43'611.4
2017-Dec-14 06:01N 34°29' E 134°37'  
2017-Dec-08 09:03N 34°39' E 134°22'510.4
2017-Dec-08 08:31N 34°41' E 134°28'110.3
2017-Dec-08 08:26N 34°41' E 134°29'810.3
2017-Dec-08 07:38N 34°42' E 134°39'110.6
2017-Dec-08 07:30N 34°42' E 134°41'510.1
2017-Dec-08 07:01N 34°41' E 134°47'3 6.7
2017-Dec-08 06:30N 34°43' E 134°51'0 0.0
2017-Dec-08 06:00N 34°43' E 134°51'  

Dump ship's entire track history